Eagle — WBP2187 — position and weather

sailwx.info

Track history (hours):
 
Tides and Currents Weather Stations Pressure Air Temp Water Temp Dewpoint Dewpoint Depression Visibility Wind Speed Wind Dir Waves Ship Positions

Eagle

Owner: Harley Marine Services, INC, SEATTLE, WA. More information available from US FCC via Universal Licensing System and Coast Guard Vessel Documentation Center.

Last reported at 2015-Apr-02 02:33 UTC. Time now 2015-Apr-02 03:13 UTC.
Position N 47°17' W 122°23'.

Length 32 m; draft 4 m.

Type: Tow > 200 m length. MMSI: 366978690.

Date/timePositionNaut miles runAvg speedWind from/ knotsBaromVisibWave heightAir tempDewpointWater temp
2015-Apr-02 02:33N 47°17' W 122°23'0 0.0
2015-Apr-02 01:33N 47°17' W 122°23'0 0.0
2015-Apr-02 00:32N 47°17' W 122°23'0 0.0
2015-Apr-01 23:34N 47°17' W 122°23'0 0.0
2015-Apr-01 22:33N 47°17' W 122°23'0 0.0
2015-Apr-01 21:33N 47°17' W 122°23'0 0.0
2015-Apr-01 20:32N 47°17' W 122°23'0 0.0
2015-Apr-01 19:33N 47°17' W 122°23'0 0.0
2015-Apr-01 18:33N 47°17' W 122°23'0 0.0
2015-Apr-01 17:33N 47°17' W 122°23'0 0.0
2015-Apr-01 16:12N 47°17' W 122°23'0 0.0
2015-Apr-01 15:30N 47°17' W 122°23'0 0.0
2015-Apr-01 14:33N 47°17' W 122°23'0 0.0
2015-Apr-01 13:23N 47°17' W 122°23'1 1.3
2015-Apr-01 12:32N 47°17' W 122°25'2 2.0
2015-Apr-01 11:33N 47°18' W 122°27'2 2.0
2015-Apr-01 10:33N 47°20' W 122°27'6 5.6
2015-Apr-01 09:33N 47°25' W 122°23'2 6.7
2015-Apr-01 09:13N 47°27' W 122°25'4 6.6
2015-Apr-01 08:33N 47°31' W 122°26'1 6.5
2015-Apr-01 08:27N 47°32' W 122°27'6 6.8
2015-Apr-01 07:33N 47°38' W 122°28'0 0.0
2015-Apr-01 07:33N 47°38' W 122°28'6 6.5
2015-Apr-01 06:33N 47°44' W 122°28'0 0.0
2015-Apr-01 06:33N 47°44' W 122°28'2 6.3
2015-Apr-01 06:13N 47°46' W 122°27'5 6.9
2015-Apr-01 05:33N 47°50' W 122°29'6 5.8
2015-Apr-01 04:33N 47°56' W 122°32'1 4.9
2015-Apr-01 04:27N 47°56' W 122°32'4 4.9
2015-Apr-01 03:33N 47°59' W 122°37'5 4.5
2015-Apr-01 02:33N 48°03' W 122°39'4 4.4
2015-Apr-01 01:33N 48°08' W 122°42'4 4.4
2015-Apr-01 00:33N 48°10' W 122°47'6 6.1
2015-Mar-31 23:32N 48°11' W 122°56'8 7.6
2015-Mar-31 22:33N 48°12' W 123°07'8 7.8
2015-Mar-31 21:33N 48°13' W 123°19'8 7.6
2015-Mar-31 20:33N 48°13' W 123°30'7 7.3
2015-Mar-31 19:33N 48°13' W 123°41'8 7.6
2015-Mar-31 18:32N 48°13' W 123°53'8 6.9
2015-Mar-31 17:20N 48°15' W 124°05'4 5.3
2015-Mar-31 16:32N 48°17' W 124°11'5 5.2
2015-Mar-31 15:33N 48°19' W 124°18'5 4.9
2015-Mar-31 14:33N 48°21' W 124°24'5 5.1
2015-Mar-31 13:33N 48°23' W 124°31'6 6.3
2015-Mar-31 12:33N 48°26' W 124°40'7 6.7
2015-Mar-31 11:33N 48°26' W 124°50'7 6.4
2015-Mar-31 10:29N 48°22' W 124°58'6 6.1
2015-Mar-31 09:30N 48°16' W 125°01'95 6.3
2015-Mar-30 18:16N 46°41' W 125°12'7 7.1
2015-Mar-30 17:18N 46°34' W 125°12'6 7.1
2015-Mar-30 16:28N 46°28' W 125°11'7 7.3
2015-Mar-30 15:33N 46°22' W 125°11'7 7.4
2015-Mar-30 14:33N 46°14' W 125°10'8 7.2
2015-Mar-30 13:27N 46°07' W 125°10'6 7.0
2015-Mar-30 12:33N 46°00' W 125°09'7 6.9
2015-Mar-30 11:32N 45°53' W 125°09'10 7.1
2015-Mar-30 10:11N 45°44' W 125°08'5 6.9
2015-Mar-30 09:25N 45°38' W 125°08'13 6.9
2015-Mar-30 07:32N 45°25' W 125°06'7 7.0
2015-Mar-30 06:31N 45°18' W 125°06'22 6.9
2015-Mar-30 03:22N 44°57' W 125°04'  
2015-Mar-27 13:33N 38°41' W 123°51'7 6.1
2015-Mar-27 12:21N 38°35' W 123°46'5 6.1
2015-Mar-27 11:33N 38°31' W 123°42'6 6.0
2015-Mar-27 10:33N 38°27' W 123°37'6 5.9
2015-Mar-27 09:33N 38°22' W 123°32'6 5.9
2015-Mar-27 08:33N 38°17' W 123°28'6 5.9
2015-Mar-27 07:33N 38°13' W 123°23'6 6.0
2015-Mar-27 06:33N 38°08' W 123°19'6 6.0
2015-Mar-27 05:33N 38°03' W 123°14'6 6.3
2015-Mar-27 04:33N 37°59' W 123°08'6 6.5
2015-Mar-27 03:33N 37°56' W 123°01'6 6.5
2015-Mar-27 02:33N 37°52' W 122°54'6 6.3
2015-Mar-27 01:32N 37°49' W 122°47'6 5.6
2015-Mar-27 00:33N 37°46' W 122°41'5 5.4
2015-Mar-26 23:33N 37°47' W 122°34'5 5.0
2015-Mar-26 22:33N 37°49' W 122°29'5 4.8
2015-Mar-26 21:33N 37°48' W 122°23'2 2.2
2015-Mar-26 20:33N 37°47' W 122°21'0 0.2
2015-Mar-26 19:33N 37°47' W 122°21'0 0.1
2015-Mar-26 18:33N 37°47' W 122°21'0 0.4
2015-Mar-26 17:33N 37°47' W 122°21'0 0.1
2015-Mar-26 16:33N 37°47' W 122°21'0 0.2
2015-Mar-26 15:33N 37°47' W 122°21'0 0.4
2015-Mar-26 14:33N 37°48' W 122°21'2 2.0
2015-Mar-26 13:33N 37°48' W 122°19'1 1.1
2015-Mar-26 12:33N 37°48' W 122°17'0 0.0
2015-Mar-26 11:33N 37°48' W 122°17'0 0.0
2015-Mar-26 10:33N 37°48' W 122°17'0 0.0
2015-Mar-26 09:33N 37°48' W 122°17'0 0.0
2015-Mar-26 08:33N 37°48' W 122°17'0 0.0
2015-Mar-26 07:33N 37°48' W 122°17'0 0.0
2015-Mar-26 06:33N 37°48' W 122°17'0 0.0
2015-Mar-26 05:33N 37°48' W 122°17'0 0.0
2015-Mar-26 04:33N 37°48' W 122°17'0 0.0
2015-Mar-26 03:33N 37°48' W 122°17'0 0.0
2015-Mar-26 02:33N 37°48' W 122°17'0 0.0
2015-Mar-26 01:33N 37°48' W 122°17'0 0.0
2015-Mar-26 00:33N 37°48' W 122°17'0 0.0
2015-Mar-25 23:33N 37°48' W 122°17'0 0.0
2015-Mar-25 22:33N 37°48' W 122°17'0 0.0
2015-Mar-25 21:33N 37°48' W 122°17'0 0.0
2015-Mar-25 20:33N 37°48' W 122°17'0 0.0
2015-Mar-25 19:33N 37°48' W 122°17'0 0.0
2015-Mar-25 18:33N 37°48' W 122°17'0 0.0
2015-Mar-25 17:33N 37°48' W 122°17'0 0.0
2015-Mar-25 16:33N 37°48' W 122°17'0 0.0
2015-Mar-25 15:33N 37°48' W 122°17'2 2.2
2015-Mar-25 14:33N 37°48' W 122°20'4 4.4
2015-Mar-25 13:33N 37°50' W 122°24'6 6.2
2015-Mar-25 12:33N 37°56' W 122°27'5 5.1
2015-Mar-25 11:33N 38°01' W 122°23'5 4.7
2015-Mar-25 10:31N 38°03' W 122°18'0 0.0
2015-Mar-24 20:07N 38°03' W 122°18'3 3.8
2015-Mar-24 19:23N 38°02' W 122°21'4 4.7
2015-Mar-24 18:33N 37°60' W 122°25'4 4.3
2015-Mar-24 17:33N 37°55' W 122°25'3 2.6
2015-Mar-24 16:33N 37°55' W 122°22'0 0.0
2015-Mar-24 15:33N 37°55' W 122°22'0 0.0
2015-Mar-24 14:33N 37°55' W 122°22'0 0.0
2015-Mar-24 13:33N 37°55' W 122°22'0 0.0
2015-Mar-24 12:33N 37°55' W 122°22'0 0.0
2015-Mar-24 11:33N 37°55' W 122°22'0 0.0
2015-Mar-24 10:33N 37°55' W 122°22'0 0.0
2015-Mar-24 09:33N 37°55' W 122°22'0 0.0
2015-Mar-24 08:33N 37°55' W 122°22'0 0.0
2015-Mar-24 07:33N 37°55' W 122°22'0 0.0
2015-Mar-24 06:33N 37°55' W 122°22'0 0.0
2015-Mar-24 05:33N 37°55' W 122°22'0 0.0
2015-Mar-24 04:33N 37°55' W 122°22'0 0.0
2015-Mar-24 03:33N 37°55' W 122°22'0 0.0
2015-Mar-24 02:33N 37°55' W 122°22'0 0.0
2015-Mar-24 01:33N 37°55' W 122°22'0 0.0
2015-Mar-24 00:33N 37°55' W 122°22'0 0.0
2015-Mar-23 23:33N 37°55' W 122°22'0 0.0
2015-Mar-23 22:33N 37°55' W 122°22'0 0.0
2015-Mar-23 21:33N 37°55' W 122°22'0 0.0
2015-Mar-23 20:33N 37°55' W 122°22'0 0.0
2015-Mar-23 19:33N 37°55' W 122°22'0 0.0
2015-Mar-23 18:33N 37°55' W 122°22'0 0.0
2015-Mar-23 17:33N 37°55' W 122°22'0 0.0
2015-Mar-23 16:33N 37°55' W 122°22'0 0.0
2015-Mar-23 15:33N 37°55' W 122°22'0 0.0
2015-Mar-23 14:33N 37°55' W 122°22'0 0.0
2015-Mar-23 13:33N 37°55' W 122°22'0 0.0
2015-Mar-23 12:33N 37°55' W 122°22'0 0.0
2015-Mar-23 11:33N 37°55' W 122°22'0 0.0
2015-Mar-23 10:33N 37°55' W 122°22'0 0.0
2015-Mar-23 09:33N 37°55' W 122°22'0 0.0
2015-Mar-23 08:33N 37°55' W 122°22'0 0.0
2015-Mar-23 07:33N 37°55' W 122°22'0 0.0
2015-Mar-23 06:33N 37°55' W 122°22'0 0.0
2015-Mar-23 05:33N 37°55' W 122°22'0 0.0
2015-Mar-23 04:33N 37°55' W 122°22'0 0.0
2015-Mar-23 03:33N 37°55' W 122°22'  
Track history (hours):
 
Tides and Currents Weather Stations Pressure Air Temp Water Temp Dewpoint Dewpoint Depression Visibility Wind Speed Wind Dir Waves Ship Positions

Eagle

Owner: Harley Marine Services, INC, SEATTLE, WA. More information available from US FCC via Universal Licensing System and Coast Guard Vessel Documentation Center.

Last reported at 2015-Apr-02 02:33 UTC. Time now 2015-Apr-02 03:13 UTC.
Position N 47°17' W 122°23'.

Length 32 m; draft 4 m.

Type: Tow > 200 m length. MMSI: 366978690.

Date/timePositionNaut miles runAvg speedWind from/ knotsBaromVisibWave heightAir tempDewpointWater temp
2015-Apr-02 02:33N 47°17' W 122°23'0 0.0
2015-Apr-02 01:33N 47°17' W 122°23'0 0.0
2015-Apr-02 00:32N 47°17' W 122°23'0 0.0
2015-Apr-01 23:34N 47°17' W 122°23'0 0.0
2015-Apr-01 22:33N 47°17' W 122°23'0 0.0
2015-Apr-01 21:33N 47°17' W 122°23'0 0.0
2015-Apr-01 20:32N 47°17' W 122°23'0 0.0
2015-Apr-01 19:33N 47°17' W 122°23'0 0.0
2015-Apr-01 18:33N 47°17' W 122°23'0 0.0
2015-Apr-01 17:33N 47°17' W 122°23'0 0.0
2015-Apr-01 16:12N 47°17' W 122°23'0 0.0
2015-Apr-01 15:30N 47°17' W 122°23'0 0.0
2015-Apr-01 14:33N 47°17' W 122°23'0 0.0
2015-Apr-01 13:23N 47°17' W 122°23'1 1.3
2015-Apr-01 12:32N 47°17' W 122°25'2 2.0
2015-Apr-01 11:33N 47°18' W 122°27'2 2.0
2015-Apr-01 10:33N 47°20' W 122°27'6 5.6
2015-Apr-01 09:33N 47°25' W 122°23'2 6.7
2015-Apr-01 09:13N 47°27' W 122°25'4 6.6
2015-Apr-01 08:33N 47°31' W 122°26'1 6.5
2015-Apr-01 08:27N 47°32' W 122°27'6 6.8
2015-Apr-01 07:33N 47°38' W 122°28'0 0.0
2015-Apr-01 07:33N 47°38' W 122°28'6 6.5
2015-Apr-01 06:33N 47°44' W 122°28'0 0.0
2015-Apr-01 06:33N 47°44' W 122°28'2 6.3
2015-Apr-01 06:13N 47°46' W 122°27'5 6.9
2015-Apr-01 05:33N 47°50' W 122°29'6 5.8
2015-Apr-01 04:33N 47°56' W 122°32'1 4.9
2015-Apr-01 04:27N 47°56' W 122°32'4 4.9
2015-Apr-01 03:33N 47°59' W 122°37'5 4.5
2015-Apr-01 02:33N 48°03' W 122°39'4 4.4
2015-Apr-01 01:33N 48°08' W 122°42'4 4.4
2015-Apr-01 00:33N 48°10' W 122°47'6 6.1
2015-Mar-31 23:32N 48°11' W 122°56'8 7.6
2015-Mar-31 22:33N 48°12' W 123°07'8 7.8
2015-Mar-31 21:33N 48°13' W 123°19'8 7.6
2015-Mar-31 20:33N 48°13' W 123°30'7 7.3
2015-Mar-31 19:33N 48°13' W 123°41'8 7.6
2015-Mar-31 18:32N 48°13' W 123°53'8 6.9
2015-Mar-31 17:20N 48°15' W 124°05'4 5.3
2015-Mar-31 16:32N 48°17' W 124°11'5 5.2
2015-Mar-31 15:33N 48°19' W 124°18'5 4.9
2015-Mar-31 14:33N 48°21' W 124°24'5 5.1
2015-Mar-31 13:33N 48°23' W 124°31'6 6.3
2015-Mar-31 12:33N 48°26' W 124°40'7 6.7
2015-Mar-31 11:33N 48°26' W 124°50'7 6.4
2015-Mar-31 10:29N 48°22' W 124°58'6 6.1
2015-Mar-31 09:30N 48°16' W 125°01'95 6.3
2015-Mar-30 18:16N 46°41' W 125°12'7 7.1
2015-Mar-30 17:18N 46°34' W 125°12'6 7.1
2015-Mar-30 16:28N 46°28' W 125°11'7 7.3
2015-Mar-30 15:33N 46°22' W 125°11'7 7.4
2015-Mar-30 14:33N 46°14' W 125°10'8 7.2
2015-Mar-30 13:27N 46°07' W 125°10'6 7.0
2015-Mar-30 12:33N 46°00' W 125°09'7 6.9
2015-Mar-30 11:32N 45°53' W 125°09'10 7.1
2015-Mar-30 10:11N 45°44' W 125°08'5 6.9
2015-Mar-30 09:25N 45°38' W 125°08'13 6.9
2015-Mar-30 07:32N 45°25' W 125°06'7 7.0
2015-Mar-30 06:31N 45°18' W 125°06'22 6.9
2015-Mar-30 03:22N 44°57' W 125°04'  
2015-Mar-27 13:33N 38°41' W 123°51'7 6.1
2015-Mar-27 12:21N 38°35' W 123°46'5 6.1
2015-Mar-27 11:33N 38°31' W 123°42'6 6.0
2015-Mar-27 10:33N 38°27' W 123°37'6 5.9
2015-Mar-27 09:33N 38°22' W 123°32'6 5.9
2015-Mar-27 08:33N 38°17' W 123°28'6 5.9
2015-Mar-27 07:33N 38°13' W 123°23'6 6.0
2015-Mar-27 06:33N 38°08' W 123°19'6 6.0
2015-Mar-27 05:33N 38°03' W 123°14'6 6.3
2015-Mar-27 04:33N 37°59' W 123°08'6 6.5
2015-Mar-27 03:33N 37°56' W 123°01'6 6.5
2015-Mar-27 02:33N 37°52' W 122°54'6 6.3
2015-Mar-27 01:32N 37°49' W 122°47'6 5.6
2015-Mar-27 00:33N 37°46' W 122°41'5 5.4
2015-Mar-26 23:33N 37°47' W 122°34'5 5.0
2015-Mar-26 22:33N 37°49' W 122°29'5 4.8
2015-Mar-26 21:33N 37°48' W 122°23'2 2.2
2015-Mar-26 20:33N 37°47' W 122°21'0 0.2
2015-Mar-26 19:33N 37°47' W 122°21'0 0.1
2015-Mar-26 18:33N 37°47' W 122°21'0 0.4
2015-Mar-26 17:33N 37°47' W 122°21'0 0.1
2015-Mar-26 16:33N 37°47' W 122°21'0 0.2
2015-Mar-26 15:33N 37°47' W 122°21'0 0.4
2015-Mar-26 14:33N 37°48' W 122°21'2 2.0
2015-Mar-26 13:33N 37°48' W 122°19'1 1.1
2015-Mar-26 12:33N 37°48' W 122°17'0 0.0
2015-Mar-26 11:33N 37°48' W 122°17'0 0.0
2015-Mar-26 10:33N 37°48' W 122°17'0 0.0
2015-Mar-26 09:33N 37°48' W 122°17'0 0.0
2015-Mar-26 08:33N 37°48' W 122°17'0 0.0
2015-Mar-26 07:33N 37°48' W 122°17'0 0.0
2015-Mar-26 06:33N 37°48' W 122°17'0 0.0
2015-Mar-26 05:33N 37°48' W 122°17'0 0.0
2015-Mar-26 04:33N 37°48' W 122°17'0 0.0
2015-Mar-26 03:33N 37°48' W 122°17'0 0.0
2015-Mar-26 02:33N 37°48' W 122°17'0 0.0
2015-Mar-26 01:33N 37°48' W 122°17'0 0.0
2015-Mar-26 00:33N 37°48' W 122°17'0 0.0
2015-Mar-25 23:33N 37°48' W 122°17'0 0.0
2015-Mar-25 22:33N 37°48' W 122°17'0 0.0
2015-Mar-25 21:33N 37°48' W 122°17'0 0.0
2015-Mar-25 20:33N 37°48' W 122°17'0 0.0
2015-Mar-25 19:33N 37°48' W 122°17'0 0.0
2015-Mar-25 18:33N 37°48' W 122°17'0 0.0
2015-Mar-25 17:33N 37°48' W 122°17'0 0.0
2015-Mar-25 16:33N 37°48' W 122°17'0 0.0
2015-Mar-25 15:33N 37°48' W 122°17'2 2.2
2015-Mar-25 14:33N 37°48' W 122°20'4 4.4
2015-Mar-25 13:33N 37°50' W 122°24'6 6.2
2015-Mar-25 12:33N 37°56' W 122°27'5 5.1
2015-Mar-25 11:33N 38°01' W 122°23'5 4.7
2015-Mar-25 10:31N 38°03' W 122°18'0 0.0
2015-Mar-24 20:07N 38°03' W 122°18'3 3.8
2015-Mar-24 19:23N 38°02' W 122°21'4 4.7
2015-Mar-24 18:33N 37°60' W 122°25'4 4.3
2015-Mar-24 17:33N 37°55' W 122°25'3 2.6
2015-Mar-24 16:33N 37°55' W 122°22'0 0.0
2015-Mar-24 15:33N 37°55' W 122°22'0 0.0
2015-Mar-24 14:33N 37°55' W 122°22'0 0.0
2015-Mar-24 13:33N 37°55' W 122°22'0 0.0
2015-Mar-24 12:33N 37°55' W 122°22'0 0.0
2015-Mar-24 11:33N 37°55' W 122°22'0 0.0
2015-Mar-24 10:33N 37°55' W 122°22'0 0.0
2015-Mar-24 09:33N 37°55' W 122°22'0 0.0
2015-Mar-24 08:33N 37°55' W 122°22'0 0.0
2015-Mar-24 07:33N 37°55' W 122°22'0 0.0
2015-Mar-24 06:33N 37°55' W 122°22'0 0.0
2015-Mar-24 05:33N 37°55' W 122°22'0 0.0
2015-Mar-24 04:33N 37°55' W 122°22'0 0.0
2015-Mar-24 03:33N 37°55' W 122°22'0 0.0
2015-Mar-24 02:33N 37°55' W 122°22'0 0.0
2015-Mar-24 01:33N 37°55' W 122°22'0 0.0
2015-Mar-24 00:33N 37°55' W 122°22'0 0.0
2015-Mar-23 23:33N 37°55' W 122°22'0 0.0
2015-Mar-23 22:33N 37°55' W 122°22'0 0.0
2015-Mar-23 21:33N 37°55' W 122°22'0 0.0
2015-Mar-23 20:33N 37°55' W 122°22'0 0.0
2015-Mar-23 19:33N 37°55' W 122°22'0 0.0
2015-Mar-23 18:33N 37°55' W 122°22'0 0.0
2015-Mar-23 17:33N 37°55' W 122°22'0 0.0
2015-Mar-23 16:33N 37°55' W 122°22'0 0.0
2015-Mar-23 15:33N 37°55' W 122°22'0 0.0
2015-Mar-23 14:33N 37°55' W 122°22'0 0.0
2015-Mar-23 13:33N 37°55' W 122°22'0 0.0
2015-Mar-23 12:33N 37°55' W 122°22'0 0.0
2015-Mar-23 11:33N 37°55' W 122°22'0 0.0
2015-Mar-23 10:33N 37°55' W 122°22'0 0.0
2015-Mar-23 09:33N 37°55' W 122°22'0 0.0
2015-Mar-23 08:33N 37°55' W 122°22'0 0.0
2015-Mar-23 07:33N 37°55' W 122°22'0 0.0
2015-Mar-23 06:33N 37°55' W 122°22'0 0.0
2015-Mar-23 05:33N 37°55' W 122°22'0 0.0
2015-Mar-23 04:33N 37°55' W 122°22'0 0.0
2015-Mar-23 03:33N 37°55' W 122°22'  

Dump ship's entire track history